createdAt,value
2022-09-19T00:01:26.060Z,14.40
2022-09-19T00:03:56.498Z,12.75
2022-09-19T00:06:27.520Z,10.90
2022-09-19T00:08:56.715Z,9.70
2022-09-19T00:11:26.081Z,10.30
2022-09-19T00:13:56.948Z,17.77
2022-09-19T00:16:29.318Z,11.23
2022-09-19T00:18:59.855Z,9.70
2022-09-19T00:21:30.686Z,7.72
2022-09-19T00:24:16.501Z,14.35
2022-09-19T00:26:46.335Z,14.60
2022-09-19T00:29:16.286Z,11.25
2022-09-19T00:31:46.434Z,12.95
2022-09-19T00:34:17.173Z,12.45
2022-09-19T00:36:46.406Z,20.92
2022-09-19T00:39:15.968Z,13.05
2022-09-19T00:41:45.129Z,9.43
2022-09-19T00:44:46.449Z,13.75
2022-09-19T00:47:18.294Z,14.07
2022-09-19T00:49:49.346Z,11.93
2022-09-19T00:52:20.517Z,6.53
2022-09-19T00:54:50.666Z,14.82
2022-09-19T00:57:19.144Z,10.85
2022-09-19T00:59:49.679Z,15.93
2022-09-19T01:02:22.562Z,10.55
2022-09-19T01:04:50.986Z,17.77
2022-09-19T01:07:25.732Z,13.38
2022-09-19T01:09:57.080Z,17.75
2022-09-19T01:12:34.014Z,20.77
2022-09-19T01:15:13.194Z,33.38
2022-09-19T01:17:47.839Z,18.20
2022-09-19T01:20:53.708Z,11.93
2022-09-19T01:23:47.708Z,14.70
2022-09-19T01:26:34.008Z,9.23
2022-09-19T01:29:08.460Z,14.35
2022-09-19T01:31:37.730Z,14.70
2022-09-19T01:34:08.644Z,14.55
2022-09-19T01:36:38.683Z,14.38
2022-09-19T01:39:08.972Z,25.13
2022-09-19T01:41:37.396Z,13.35
2022-09-19T01:44:17.511Z,13.27
2022-09-19T01:46:54.707Z,25.30
2022-09-19T01:49:29.700Z,31.58
2022-09-19T01:52:05.083Z,25.80
2022-09-19T01:54:39.877Z,22.25
2022-09-19T01:57:19.225Z,12.07
2022-09-19T01:59:56.645Z,17.48
2022-09-19T02:02:35.086Z,20.40
2022-09-19T02:05:08.328Z,16.27
2022-09-19T02:07:45.180Z,13.35
2022-09-19T02:10:18.857Z,11.50
2022-09-19T02:12:51.440Z,17.08
2022-09-19T02:15:24.148Z,13.40
2022-09-19T02:17:57.484Z,39.40
2022-09-19T02:20:28.221Z,11.75
2022-09-19T02:23:00.224Z,18.35
2022-09-19T02:25:32.137Z,18.85
2022-09-19T02:28:02.300Z,9.30
2022-09-19T02:30:31.731Z,10.02
2022-09-19T02:33:00.708Z,15.43
2022-09-19T02:35:36.056Z,15.00
2022-09-19T02:38:09.813Z,10.40
2022-09-19T02:40:46.200Z,14.25
2022-09-19T02:43:17.673Z,20.92
2022-09-19T02:45:48.422Z,13.07
2022-09-19T02:48:22.235Z,10.98
2022-09-19T02:50:59.474Z,21.70
2022-09-19T02:53:30.501Z,9.35
2022-09-19T02:56:01.883Z,10.27
2022-09-19T02:58:33.253Z,10.27
2022-09-19T03:01:06.265Z,12.55
2022-09-19T03:03:55.001Z,10.07
2022-09-19T03:06:27.145Z,12.82
2022-09-19T03:08:55.907Z,9.43
2022-09-19T03:11:26.793Z,10.77
2022-09-19T03:13:59.685Z,14.63
2022-09-19T03:16:35.544Z,10.35
2022-09-19T03:19:04.707Z,11.57
2022-09-19T03:21:33.031Z,12.70
2022-09-19T03:24:01.236Z,12.38
2022-09-19T03:26:31.717Z,8.55
2022-09-19T03:29:01.174Z,14.60
2022-09-19T03:31:31.247Z,8.95
2022-09-19T03:33:59.259Z,9.80
2022-09-19T03:36:30.153Z,9.50
2022-09-19T03:39:03.450Z,11.93
2022-09-19T03:41:33.752Z,10.45
2022-09-19T03:44:02.926Z,15.27
2022-09-19T03:46:33.282Z,8.10
2022-09-19T03:49:03.536Z,17.05
2022-09-19T03:51:32.418Z,13.68
2022-09-19T03:54:00.586Z,14.82
2022-09-19T03:56:28.610Z,14.25
2022-09-19T03:58:56.491Z,13.40
2022-09-19T04:01:24.806Z,12.55
2022-09-19T04:03:54.275Z,14.35
2022-09-19T04:06:22.181Z,14.60
2022-09-19T04:08:50.774Z,21.45
2022-09-19T04:11:18.576Z,18.05
2022-09-19T04:13:50.143Z,24.75
2022-09-19T04:16:18.699Z,17.55
2022-09-19T04:18:48.826Z,13.32
2022-09-19T04:21:18.462Z,10.90
2022-09-19T04:23:46.661Z,18.40
2022-09-19T04:26:15.003Z,12.73
2022-09-19T04:28:43.394Z,11.93
2022-09-19T04:31:13.547Z,11.57
2022-09-19T04:33:42.119Z,12.75
2022-09-19T04:36:10.446Z,17.65
2022-09-19T04:38:39.706Z,22.50
2022-09-19T04:41:08.155Z,19.15
2022-09-19T04:43:37.366Z,13.70
2022-09-19T04:46:07.562Z,21.02
2022-09-19T04:48:35.686Z,18.00
2022-09-19T04:51:07.085Z,27.38
2022-09-19T04:53:37.682Z,17.70
2022-09-19T04:56:07.640Z,28.58
2022-09-19T04:58:36.142Z,25.42
2022-09-19T05:01:04.354Z,27.13
2022-09-19T05:03:32.667Z,21.42
2022-09-19T05:06:00.762Z,21.65
2022-09-19T05:08:30.419Z,22.60
2022-09-19T05:11:00.158Z,25.48
2022-09-19T05:13:31.312Z,27.25
2022-09-19T05:16:01.528Z,16.92
2022-09-19T05:18:30.479Z,21.23
2022-09-19T05:20:58.337Z,28.70
2022-09-19T05:23:27.036Z,23.42
2022-09-19T05:25:55.427Z,26.15
2022-09-19T05:28:28.622Z,21.38
2022-09-19T05:30:58.452Z,27.20
2022-09-19T05:33:27.365Z,25.77
2022-09-19T05:35:56.987Z,29.48
2022-09-19T05:38:25.204Z,23.98
2022-09-19T05:40:54.442Z,34.78
2022-09-19T05:43:23.097Z,29.35
2022-09-19T05:45:51.316Z,17.90
2022-09-19T05:48:21.145Z,24.25
2022-09-19T05:50:49.854Z,24.17
2022-09-19T05:53:36.065Z,32.42
2022-09-19T05:56:08.351Z,26.80
2022-09-19T05:58:38.864Z,17.67
2022-09-19T06:01:07.511Z,19.75
2022-09-19T06:03:37.188Z,24.05
2022-09-19T06:06:10.932Z,22.35
2022-09-19T06:08:39.220Z,29.00
2022-09-19T06:11:07.466Z,35.83
2022-09-19T06:13:56.051Z,21.15
2022-09-19T06:16:24.332Z,20.70
2022-09-19T06:18:53.731Z,31.45
2022-09-19T06:21:21.717Z,25.48
2022-09-19T06:23:49.731Z,28.55
2022-09-19T06:26:17.947Z,29.35
2022-09-19T06:28:47.589Z,32.40
2022-09-19T06:31:15.945Z,22.15
2022-09-19T06:33:44.725Z,21.60
2022-09-19T06:36:14.086Z,26.83
2022-09-19T06:38:43.975Z,22.33
2022-09-19T06:41:13.689Z,29.23
2022-09-19T06:43:41.615Z,25.95
2022-09-19T06:46:11.228Z,21.60
2022-09-19T06:48:40.895Z,19.13
2022-09-19T06:51:10.054Z,46.85
2022-09-19T06:53:42.633Z,28.17
2022-09-19T06:56:15.120Z,34.45
2022-09-19T06:58:47.448Z,20.90
2022-09-19T07:01:19.215Z,28.27
2022-09-19T07:03:51.362Z,23.30
2022-09-19T07:06:23.850Z,27.50
2022-09-19T07:08:55.963Z,29.35
2022-09-19T07:11:26.790Z,29.20
2022-09-19T07:13:55.388Z,25.88
2022-09-19T07:16:23.338Z,29.30
2022-09-19T07:18:51.271Z,22.95
2022-09-19T07:21:22.366Z,29.02
2022-09-19T07:23:55.432Z,32.88
2022-09-19T07:26:23.968Z,26.38
2022-09-19T07:28:55.598Z,27.13
2022-09-19T07:31:24.546Z,23.25
2022-09-19T07:33:52.867Z,30.08
2022-09-19T07:36:22.501Z,22.58
2022-09-19T07:38:51.192Z,23.30
2022-09-19T07:41:21.099Z,27.55
2022-09-19T07:43:50.730Z,21.73
2022-09-19T07:46:18.880Z,28.88
2022-09-19T07:48:49.172Z,24.55
2022-09-19T07:51:17.156Z,28.10
2022-09-19T07:53:45.164Z,25.63
2022-09-19T07:56:13.448Z,34.80
2022-09-19T07:58:42.693Z,31.10
2022-09-19T08:01:10.913Z,24.55
2022-09-19T08:03:38.991Z,14.48
2022-09-19T08:06:07.499Z,26.58
2022-09-19T08:08:37.179Z,37.88
2022-09-19T08:11:06.477Z,28.67
2022-09-19T08:13:34.409Z,23.00
2022-09-19T08:16:04.103Z,27.13
2022-09-19T08:18:33.144Z,29.20
2022-09-19T08:21:01.084Z,29.83
2022-09-19T08:23:30.484Z,23.73
2022-09-19T08:25:58.601Z,26.40
2022-09-19T08:28:26.717Z,32.05
2022-09-19T08:30:56.515Z,30.67
2022-09-19T08:33:25.872Z,33.20
2022-09-19T08:35:55.046Z,31.15
2022-09-19T08:38:23.040Z,37.22
2022-09-19T08:41:13.773Z,24.65
2022-09-19T08:43:47.561Z,32.75
2022-09-19T08:46:17.589Z,35.75
2022-09-19T08:48:54.549Z,30.25
2022-09-19T08:51:27.200Z,38.95
2022-09-19T08:53:58.908Z,26.98
2022-09-19T08:56:27.800Z,23.27
2022-09-19T08:59:02.481Z,27.83
2022-09-19T09:01:32.838Z,21.00
2022-09-19T09:04:13.862Z,25.42
2022-09-19T09:06:48.558Z,26.17
2022-09-19T09:09:23.605Z,23.65
2022-09-19T09:11:59.593Z,30.73
2022-09-19T09:14:32.796Z,27.90
2022-09-19T09:17:10.744Z,30.52
2022-09-19T09:19:52.629Z,28.52
2022-09-19T09:22:25.936Z,24.60
2022-09-19T09:25:10.269Z,26.52
2022-09-19T09:27:46.674Z,29.13
2022-09-19T09:30:17.816Z,28.15
2022-09-19T09:32:49.540Z,19.50
2022-09-19T09:35:27.943Z,28.75
2022-09-19T09:38:03.195Z,28.35
2022-09-19T09:40:58.576Z,33.45
2022-09-19T09:43:28.032Z,27.85
2022-09-19T09:45:56.176Z,33.53
2022-09-19T09:48:28.188Z,23.95
2022-09-19T09:51:06.397Z,26.50
2022-09-19T09:53:50.102Z,22.42
2022-09-19T09:56:23.199Z,33.08
2022-09-19T09:59:08.209Z,30.73
2022-09-19T10:02:01.703Z,23.42
2022-09-19T10:04:33.078Z,16.05
2022-09-19T10:07:12.263Z,24.77
2022-09-19T10:09:43.236Z,24.80
2022-09-19T10:15:18.593Z,24.55
2022-09-19T10:17:49.227Z,31.10
2022-09-19T10:20:20.191Z,30.42
2022-09-19T10:22:49.664Z,24.30
2022-09-19T10:25:20.310Z,24.63
2022-09-19T10:27:51.049Z,21.63
2022-09-19T10:30:20.966Z,28.52
2022-09-19T10:32:50.238Z,26.58
2022-09-19T10:35:30.426Z,27.25
2022-09-19T10:38:04.445Z,22.90
2022-09-19T10:40:33.024Z,25.90
2022-09-19T10:43:02.511Z,29.75
2022-09-19T10:45:34.732Z,20.88
2022-09-19T10:48:10.215Z,22.80
2022-09-19T10:50:45.009Z,21.27
2022-09-19T10:53:19.994Z,47.95
2022-09-19T10:55:48.562Z,25.35
2022-09-19T10:58:19.982Z,22.90
2022-09-19T11:00:51.664Z,24.17
2022-09-19T11:03:25.007Z,30.63
2022-09-19T11:06:07.670Z,19.35
2022-09-19T11:08:45.197Z,27.20
2022-09-19T11:11:23.973Z,16.13
2022-09-19T11:14:08.957Z,50.17
2022-09-19T11:16:41.223Z,25.75
2022-09-19T11:19:20.221Z,23.02
2022-09-19T11:21:58.242Z,23.92
2022-09-19T11:24:38.054Z,23.25
2022-09-19T11:27:36.260Z,28.25
2022-09-19T11:30:12.437Z,23.00
2022-09-19T11:33:03.588Z,20.55
2022-09-19T11:35:34.200Z,19.08
2022-09-19T11:41:09.659Z,24.45
2022-09-19T11:43:48.135Z,16.20
2022-09-19T11:46:24.475Z,23.83
2022-09-19T11:49:15.828Z,17.27
2022-09-19T11:51:51.259Z,19.95
2022-09-19T11:54:29.889Z,23.38
2022-09-19T11:57:11.154Z,26.13
2022-09-19T12:00:10.533Z,19.77
2022-09-19T12:02:49.926Z,23.77
2022-09-19T12:05:24.706Z,25.65
2022-09-19T12:08:01.462Z,18.95
2022-09-19T12:10:33.121Z,25.58
2022-09-19T12:13:06.753Z,27.00
2022-09-19T12:15:37.525Z,21.27
2022-09-19T12:18:13.128Z,21.13
2022-09-19T12:20:43.313Z,20.23
2022-09-19T12:23:33.057Z,28.27
2022-09-19T12:26:01.989Z,22.02
2022-09-19T12:28:35.460Z,25.48
2022-09-19T12:31:06.338Z,27.98
2022-09-19T12:33:41.674Z,14.95
2022-09-19T12:36:15.340Z,22.38
2022-09-19T12:38:46.957Z,19.63
2022-09-19T12:41:23.473Z,21.73
2022-09-19T12:43:59.174Z,20.70
2022-09-19T12:46:38.760Z,37.25
2022-09-19T12:49:16.072Z,35.88
2022-09-19T12:51:51.834Z,35.28
2022-09-19T12:54:22.685Z,24.55
2022-09-19T12:56:55.352Z,33.97
2022-09-19T12:59:25.934Z,24.45
2022-09-19T13:01:57.482Z,24.08
2022-09-19T13:04:34.029Z,23.90
2022-09-19T13:07:08.265Z,27.70
2022-09-19T13:09:40.331Z,27.98
2022-09-19T13:12:12.600Z,21.45
2022-09-19T13:14:47.083Z,23.85
2022-09-19T13:17:34.171Z,27.58
2022-09-19T13:20:20.236Z,17.45
2022-09-19T13:23:10.270Z,24.90
2022-09-19T13:25:39.738Z,29.80
2022-09-19T13:28:29.354Z,25.17
2022-09-19T13:31:14.185Z,25.95
2022-09-19T13:33:46.502Z,19.48
2022-09-19T13:36:16.337Z,19.13
2022-09-19T13:38:48.157Z,21.23
2022-09-19T13:41:24.158Z,22.88
2022-09-19T13:43:59.067Z,20.10
2022-09-19T13:46:32.035Z,30.00
2022-09-19T13:49:03.472Z,14.48
2022-09-19T13:51:38.616Z,29.30
2022-09-19T13:54:45.769Z,22.92
2022-09-19T13:57:19.576Z,19.17
2022-09-19T13:59:52.671Z,14.68
2022-09-19T14:02:25.438Z,21.75
2022-09-19T14:05:11.795Z,21.02
2022-09-19T14:10:39.119Z,27.05
2022-09-19T14:13:34.172Z,38.03
2022-09-19T14:16:09.796Z,29.27
2022-09-19T14:18:54.513Z,18.02
2022-09-19T14:21:59.372Z,30.15
2022-09-19T14:24:54.266Z,23.08
2022-09-19T14:27:46.752Z,16.40
2022-09-19T14:30:28.357Z,19.45
2022-09-19T14:33:18.714Z,20.70
2022-09-19T14:35:49.277Z,21.00
2022-09-19T14:38:35.177Z,22.38
2022-09-19T14:41:07.508Z,22.42
2022-09-19T14:44:20.968Z,19.52
2022-09-19T14:46:54.775Z,23.65
2022-09-19T14:49:28.316Z,28.38
2022-09-19T14:52:01.961Z,24.20
2022-09-19T14:54:41.312Z,16.77
2022-09-19T14:57:16.336Z,20.80
2022-09-19T14:59:45.617Z,22.65
2022-09-19T15:02:20.937Z,26.83
2022-09-19T15:04:52.444Z,19.30
2022-09-19T15:07:27.583Z,20.23
2022-09-19T15:09:55.760Z,19.63
2022-09-19T15:12:25.507Z,22.70
2022-09-19T15:14:57.606Z,23.52
2022-09-19T15:17:27.836Z,19.05
2022-09-19T15:19:58.725Z,33.22
2022-09-19T15:22:32.965Z,23.08
2022-09-19T15:25:05.880Z,23.40
2022-09-19T15:27:35.761Z,28.38
2022-09-19T15:30:11.519Z,30.08
2022-09-19T15:32:40.964Z,26.80
2022-09-19T15:35:14.277Z,25.08
2022-09-19T15:37:45.502Z,17.65
2022-09-19T15:40:16.586Z,19.90
2022-09-19T15:42:45.662Z,22.70
2022-09-19T15:45:36.320Z,24.50
2022-09-19T15:48:09.824Z,21.40
2022-09-19T15:50:41.410Z,20.95
2022-09-19T15:53:17.129Z,32.17
2022-09-19T15:55:47.141Z,18.30
2022-09-19T15:58:22.237Z,34.15
2022-09-19T16:00:53.849Z,28.15
2022-09-19T16:03:24.180Z,35.92
2022-09-19T16:06:29.865Z,22.58
2022-09-19T16:09:02.523Z,18.42
2022-09-19T16:11:32.341Z,35.72
2022-09-19T16:14:09.525Z,35.25
2022-09-19T16:16:39.604Z,26.25
2022-09-19T16:19:07.857Z,20.00
2022-09-19T16:21:37.739Z,27.52
2022-09-19T16:24:10.880Z,25.88
2022-09-19T16:26:38.863Z,22.48
2022-09-19T16:29:07.404Z,21.50
2022-09-19T16:31:36.737Z,27.33
2022-09-19T16:34:08.763Z,20.23
2022-09-19T16:36:43.059Z,21.23
2022-09-19T16:39:20.596Z,26.85
2022-09-19T16:42:03.014Z,13.02
2022-09-19T16:44:38.076Z,22.60
2022-09-19T16:47:19.801Z,17.33
2022-09-19T16:49:49.080Z,18.55
2022-09-19T16:52:21.250Z,19.85
2022-09-19T16:54:51.189Z,22.42
2022-09-19T16:57:20.077Z,18.27
2022-09-19T16:59:49.205Z,25.17
2022-09-19T17:02:22.875Z,16.92
2022-09-19T17:04:50.780Z,12.70
2022-09-19T17:07:20.659Z,14.13
2022-09-19T17:09:50.850Z,18.77
2022-09-19T17:12:20.090Z,21.92
2022-09-19T17:14:48.986Z,17.35
2022-09-19T17:17:18.106Z,13.55
2022-09-19T17:19:47.219Z,12.55
2022-09-19T17:22:18.623Z,14.77
2022-09-19T17:24:47.285Z,20.55
2022-09-19T17:27:17.487Z,16.33
2022-09-19T17:29:47.342Z,18.20
2022-09-19T17:32:15.434Z,13.30
2022-09-19T17:34:46.198Z,9.98
2022-09-19T17:37:14.234Z,19.85
2022-09-19T17:39:42.561Z,17.27
2022-09-19T17:42:14.284Z,496.90
2022-09-19T17:44:46.009Z,396.05
2022-09-19T17:47:33.628Z,427.10
2022-09-19T17:50:01.790Z,370.50
2022-09-19T17:52:30.039Z,318.35
2022-09-19T17:54:58.361Z,329.02
2022-09-19T17:57:26.534Z,350.33
2022-09-19T18:00:00.571Z,333.92
2022-09-19T18:02:46.029Z,307.40
2022-09-19T18:05:16.851Z,241.07
2022-09-19T18:07:45.255Z,263.75
2022-09-19T18:10:13.037Z,218.40
2022-09-19T18:12:41.376Z,185.23
2022-09-19T18:15:15.360Z,141.52
2022-09-19T18:17:43.268Z,261.67
2022-09-19T18:20:12.782Z,292.58
2022-09-19T18:22:40.889Z,267.45
2022-09-19T18:25:15.003Z,283.80
2022-09-19T18:27:44.701Z,247.82
2022-09-19T18:30:16.488Z,277.10
2022-09-19T18:32:45.350Z,265.35
2022-09-19T18:35:14.870Z,295.73
2022-09-19T18:37:46.133Z,316.75
2022-09-19T18:40:16.234Z,290.65
2022-09-19T18:42:44.357Z,256.58
2022-09-19T18:45:14.376Z,272.42
2022-09-19T18:47:42.509Z,192.68
2022-09-19T18:50:12.232Z,191.02
2022-09-19T18:52:40.148Z,171.30
2022-09-19T18:55:08.764Z,173.88
2022-09-19T18:57:36.640Z,209.60
2022-09-19T19:00:05.680Z,198.13
2022-09-19T19:02:36.522Z,190.52
2022-09-19T19:05:04.558Z,176.13
2022-09-19T19:07:32.759Z,178.32
2022-09-19T19:10:00.633Z,202.52
2022-09-19T19:12:38.517Z,209.18
2022-09-19T19:15:10.366Z,216.20
2022-09-19T19:17:39.712Z,210.05
2022-09-19T19:20:08.341Z,213.40
2022-09-19T19:22:36.197Z,241.55
2022-09-19T19:25:04.358Z,237.30
2022-09-19T19:27:32.252Z,224.38
2022-09-19T19:30:00.288Z,234.57
2022-09-19T19:32:28.250Z,199.23
2022-09-19T19:34:57.527Z,218.20
2022-09-19T19:37:26.531Z,163.57
2022-09-19T19:39:54.446Z,206.40
2022-09-19T19:42:23.125Z,200.55
2022-09-19T19:44:53.040Z,243.63
2022-09-19T19:47:21.161Z,239.20
2022-09-19T19:49:50.808Z,233.43
2022-09-19T19:52:20.486Z,213.18
2022-09-19T19:54:48.371Z,224.45
2022-09-19T19:57:16.456Z,209.40
2022-09-19T19:59:44.364Z,190.10
2022-09-19T20:02:15.196Z,212.52
2022-09-19T20:04:43.099Z,267.35
2022-09-19T20:07:12.277Z,218.35
2022-09-19T20:09:42.980Z,239.38
2022-09-19T20:12:11.261Z,207.75
2022-09-19T20:14:40.720Z,269.30
2022-09-19T20:17:08.549Z,247.95
2022-09-19T20:19:37.307Z,341.95
2022-09-19T20:22:05.159Z,402.73
2022-09-19T20:24:35.447Z,396.50
2022-09-19T20:27:08.258Z,414.85
2022-09-19T20:29:36.369Z,415.88
2022-09-19T20:32:04.738Z,402.88
2022-09-19T20:34:32.863Z,395.10
2022-09-19T20:37:01.016Z,399.23
2022-09-19T20:39:29.177Z,358.05
2022-09-19T20:41:57.211Z,375.65
2022-09-19T20:44:26.721Z,402.42
2022-09-19T20:46:54.783Z,345.33
2022-09-19T20:49:26.025Z,327.67
2022-09-19T20:51:54.031Z,305.23
2022-09-19T20:54:23.283Z,357.83
2022-09-19T20:56:51.613Z,342.27
2022-09-19T20:59:20.641Z,294.15
2022-09-19T21:01:51.687Z,345.05
2022-09-19T21:04:21.999Z,365.25
2022-09-19T21:06:50.664Z,456.67
2022-09-19T21:09:18.621Z,480.42
2022-09-19T21:11:46.827Z,494.40
2022-09-19T21:14:14.871Z,526.38
2022-09-19T21:16:42.863Z,557.95
2022-09-19T21:19:12.437Z,493.15
2022-09-19T21:21:40.404Z,370.80
2022-09-19T21:24:08.431Z,496.10
2022-09-19T21:26:37.459Z,492.50
2022-09-19T21:29:07.555Z,456.70
2022-09-19T21:31:36.863Z,443.17
2022-09-19T21:34:06.424Z,460.23
2022-09-19T21:36:37.730Z,361.42
2022-09-19T21:39:06.215Z,422.98
2022-09-19T21:41:36.036Z,444.45
2022-09-19T21:44:06.302Z,407.02
2022-09-19T21:46:36.981Z,346.95
2022-09-19T21:49:05.228Z,319.38
2022-09-19T21:51:36.858Z,321.15
2022-09-19T21:54:06.519Z,316.90
2022-09-19T21:56:35.416Z,386.98
2022-09-19T21:59:04.471Z,444.23
2022-09-19T22:01:33.919Z,493.65
2022-09-19T22:04:02.356Z,469.65
2022-09-19T22:06:31.614Z,483.10
2022-09-19T22:09:01.897Z,404.50
2022-09-19T22:11:31.276Z,294.17
2022-09-19T22:14:00.490Z,364.48
2022-09-19T22:16:29.660Z,359.33
2022-09-19T22:18:58.287Z,360.60
2022-09-19T22:21:26.464Z,300.52
2022-09-19T22:23:55.942Z,351.73
2022-09-19T22:26:27.991Z,401.75
2022-09-19T22:28:56.848Z,437.60
2022-09-19T22:31:26.362Z,392.30
2022-09-19T22:33:55.330Z,451.33
2022-09-19T22:36:24.886Z,430.58
2022-09-19T22:38:52.884Z,455.10
2022-09-19T22:41:21.293Z,395.05
2022-09-19T22:43:52.660Z,429.58
2022-09-19T22:46:24.823Z,439.58
2022-09-19T22:48:53.331Z,485.35
2022-09-19T22:51:23.009Z,505.33
2022-09-19T22:53:51.210Z,483.88
2022-09-19T22:56:22.345Z,410.05
2022-09-19T22:58:52.388Z,447.83
2022-09-19T23:01:21.856Z,444.65
2022-09-19T23:03:49.883Z,383.13
2022-09-19T23:06:19.910Z,306.65
2022-09-19T23:08:48.754Z,328.73
2022-09-19T23:11:17.217Z,307.73
2022-09-19T23:13:48.426Z,361.85
2022-09-19T23:16:20.366Z,354.15
2022-09-19T23:18:51.860Z,302.75
2022-09-19T23:21:20.443Z,306.98
2022-09-19T23:23:49.640Z,320.08
2022-09-19T23:26:17.749Z,330.10
2022-09-19T23:28:45.939Z,327.15
2022-09-19T23:31:14.088Z,355.38
2022-09-19T23:33:43.997Z,356.98
2022-09-19T23:36:14.815Z,393.00
2022-09-19T23:38:42.818Z,356.05
2022-09-19T23:41:11.715Z,404.05
2022-09-19T23:43:40.503Z,401.55
2022-09-19T23:46:09.108Z,356.05
2022-09-19T23:48:38.139Z,341.55
2022-09-19T23:51:08.519Z,350.30
2022-09-19T23:53:38.428Z,314.80
2022-09-19T23:56:09.448Z,362.40
2022-09-19T23:58:37.440Z,338.77
